createdAt,value
2018-10-09T00:01:46.835Z,10.80
2018-10-09T00:04:15.128Z,11.48
2018-10-09T00:06:43.431Z,10.65
2018-10-09T00:09:11.823Z,12.40
2018-10-09T00:11:40.147Z,12.58
2018-10-09T00:14:08.342Z,11.40
2018-10-09T00:16:36.659Z,11.57
2018-10-09T00:19:04.901Z,10.48
2018-10-09T00:21:33.183Z,9.88
2018-10-09T00:24:01.468Z,10.00
2018-10-09T00:26:29.655Z,9.43
2018-10-09T00:28:57.901Z,10.08
2018-10-09T00:31:26.134Z,9.28
2018-10-09T00:33:54.388Z,9.10
2018-10-09T00:36:22.652Z,8.40
2018-10-09T00:38:50.883Z,8.83
2018-10-09T00:41:19.179Z,9.28
2018-10-09T00:43:47.509Z,8.93
2018-10-09T00:46:15.818Z,8.50
2018-10-09T00:48:44.087Z,10.15
2018-10-09T00:51:12.337Z,8.85
2018-10-09T00:53:40.576Z,8.58
2018-10-09T00:56:09.318Z,10.05
2018-10-09T00:58:37.590Z,9.83
2018-10-09T01:01:05.814Z,9.85
2018-10-09T01:03:34.053Z,9.33
2018-10-09T01:06:02.313Z,9.35
2018-10-09T01:08:30.553Z,9.70
2018-10-09T01:10:58.834Z,9.83
2018-10-09T01:13:27.179Z,11.05
2018-10-09T01:15:55.867Z,9.63
2018-10-09T01:18:24.220Z,9.98
2018-10-09T01:20:52.604Z,10.82
2018-10-09T01:23:20.891Z,10.88
2018-10-09T01:25:49.151Z,10.08
2018-10-09T01:28:17.438Z,9.73
2018-10-09T01:30:45.663Z,9.03
2018-10-09T01:33:13.931Z,10.18
2018-10-09T01:35:42.151Z,10.88
2018-10-09T01:38:10.442Z,10.30
2018-10-09T01:40:38.759Z,9.93
2018-10-09T01:43:07.002Z,9.88
2018-10-09T01:45:35.235Z,10.53
2018-10-09T01:48:03.455Z,9.73
2018-10-09T01:50:31.766Z,9.70
2018-10-09T01:53:00.028Z,9.35
2018-10-09T01:55:28.316Z,9.60
2018-10-09T01:57:57.043Z,9.48
2018-10-09T02:00:25.287Z,9.68
2018-10-09T02:02:53.543Z,9.75
2018-10-09T02:05:21.775Z,9.60
2018-10-09T02:07:50.247Z,10.20
2018-10-09T02:10:25.051Z,8.98
2018-10-09T02:12:53.299Z,9.53
2018-10-09T02:15:21.511Z,8.90
2018-10-09T02:17:49.760Z,9.38
2018-10-09T02:20:18.008Z,9.53
2018-10-09T02:22:46.322Z,8.88
2018-10-09T02:25:14.552Z,8.13
2018-10-09T02:27:42.790Z,9.43
2018-10-09T02:30:11.365Z,9.58
2018-10-09T02:32:39.615Z,9.33
2018-10-09T02:35:07.876Z,9.28
2018-10-09T02:37:36.169Z,9.38
2018-10-09T02:40:04.932Z,10.30
2018-10-09T02:42:33.155Z,10.15
2018-10-09T02:45:01.403Z,10.23
2018-10-09T02:47:29.630Z,10.20
2018-10-09T02:49:57.867Z,10.18
2018-10-09T02:52:26.212Z,9.85
2018-10-09T02:54:54.411Z,10.35
2018-10-09T02:57:22.651Z,9.35
2018-10-09T02:59:50.924Z,9.50
2018-10-09T03:02:19.172Z,9.83
2018-10-09T03:04:47.374Z,9.55
2018-10-09T03:07:15.637Z,9.15
2018-10-09T03:09:43.911Z,9.75
2018-10-09T03:12:12.233Z,9.23
2018-10-09T03:14:40.559Z,9.68
2018-10-09T03:17:09.111Z,9.08
2018-10-09T03:19:37.366Z,8.83
2018-10-09T03:22:05.580Z,9.05
2018-10-09T03:24:33.814Z,9.20
2018-10-09T03:27:02.077Z,9.10
2018-10-09T03:29:30.356Z,9.28
2018-10-09T03:31:58.598Z,8.68
2018-10-09T03:34:26.890Z,8.15
2018-10-09T03:36:55.154Z,8.03
2018-10-09T03:39:23.371Z,8.55
2018-10-09T03:41:53.048Z,8.08
2018-10-09T03:44:21.343Z,8.55
2018-10-09T03:46:49.639Z,8.68
2018-10-09T03:49:17.897Z,8.83
2018-10-09T03:51:46.538Z,8.30
2018-10-09T03:54:14.786Z,8.20
2018-10-09T03:56:43.011Z,8.58
2018-10-09T03:59:11.265Z,8.30
2018-10-09T04:01:39.559Z,8.70
2018-10-09T04:04:07.801Z,8.60
2018-10-09T04:06:36.090Z,8.90
2018-10-09T04:09:08.281Z,8.53
2018-10-09T04:11:36.492Z,7.92
2018-10-09T04:14:04.743Z,8.28
2018-10-09T04:16:32.967Z,9.03
2018-10-09T04:19:01.208Z,9.10
2018-10-09T04:21:29.468Z,8.63
2018-10-09T04:23:57.688Z,9.60
2018-10-09T04:26:25.947Z,9.40
2018-10-09T04:28:54.207Z,9.83
2018-10-09T04:31:23.515Z,9.43
2018-10-09T04:33:51.845Z,9.10
2018-10-09T04:36:20.098Z,9.63
2018-10-09T04:38:48.356Z,10.70
2018-10-09T04:41:16.590Z,9.33
2018-10-09T04:43:44.827Z,9.80
2018-10-09T04:46:13.088Z,10.18
2018-10-09T04:51:16.051Z,10.65
2018-10-09T04:53:44.320Z,10.88
2018-10-09T04:56:12.534Z,9.95
2018-10-09T04:58:40.784Z,9.83
2018-10-09T05:01:09.032Z,10.13
2018-10-09T05:03:37.235Z,9.53
2018-10-09T05:06:05.501Z,9.95
2018-10-09T05:08:33.911Z,10.23
2018-10-09T05:11:02.194Z,9.98
2018-10-09T05:13:30.468Z,9.95
2018-10-09T05:15:59.130Z,10.13
2018-10-09T05:18:27.412Z,10.18
2018-10-09T05:20:55.682Z,10.15
2018-10-09T05:23:23.951Z,11.08
2018-10-09T05:25:52.254Z,10.15
2018-10-09T05:28:20.520Z,10.28
2018-10-09T05:30:48.798Z,9.83
2018-10-09T05:33:17.027Z,9.68
2018-10-09T05:35:45.277Z,10.28
2018-10-09T05:38:13.557Z,9.38
2018-10-09T05:40:41.841Z,10.03
2018-10-09T05:43:10.108Z,9.50
2018-10-09T05:45:38.416Z,10.80
2018-10-09T05:48:07.294Z,10.20
2018-10-09T05:50:35.730Z,10.05
2018-10-09T05:53:03.971Z,10.30
2018-10-09T05:55:32.215Z,10.82
2018-10-09T05:58:00.508Z,10.25
2018-10-09T06:00:28.761Z,10.48
2018-10-09T06:02:57.060Z,10.98
2018-10-09T06:05:25.351Z,10.32
2018-10-09T06:07:53.612Z,10.35
2018-10-09T06:10:21.859Z,10.85
2018-10-09T06:12:50.159Z,10.82
2018-10-09T06:15:18.406Z,11.10
2018-10-09T06:17:46.681Z,11.22
2018-10-09T06:20:14.962Z,11.00
2018-10-09T06:22:43.283Z,10.98
2018-10-09T06:25:11.597Z,9.88
2018-10-09T06:27:40.031Z,9.78
2018-10-09T06:30:08.351Z,10.43
2018-10-09T06:32:36.590Z,12.68
2018-10-09T06:35:05.125Z,10.65
2018-10-09T06:37:33.358Z,11.22
2018-10-09T06:40:01.582Z,10.88
2018-10-09T06:42:29.842Z,10.10
2018-10-09T06:44:58.144Z,9.58
2018-10-09T06:47:26.694Z,9.55
2018-10-09T06:49:54.898Z,11.03
2018-10-09T06:52:23.175Z,11.30
2018-10-09T06:54:51.494Z,10.95
2018-10-09T06:57:19.683Z,10.08
2018-10-09T06:59:47.968Z,10.82
2018-10-09T07:02:16.264Z,14.53
2018-10-09T07:04:44.557Z,12.07
2018-10-09T07:07:12.822Z,11.70
2018-10-09T07:09:41.106Z,11.05
2018-10-09T07:12:09.381Z,11.65
2018-10-09T07:14:37.658Z,11.45
2018-10-09T07:17:06.002Z,11.20
2018-10-09T07:19:34.244Z,10.50
2018-10-09T07:22:02.498Z,10.90
2018-10-09T07:24:30.813Z,10.45
2018-10-09T07:26:59.123Z,11.22
2018-10-09T07:29:27.381Z,10.70
2018-10-09T07:31:55.604Z,10.55
2018-10-09T07:34:23.893Z,11.83
2018-10-09T07:36:52.492Z,12.82
2018-10-09T07:39:20.805Z,12.18
2018-10-09T07:41:49.268Z,11.40
2018-10-09T07:44:17.565Z,12.82
2018-10-09T07:46:45.768Z,12.63
2018-10-09T07:49:14.014Z,12.78
2018-10-09T07:51:42.331Z,13.32
2018-10-09T07:54:10.541Z,13.30
2018-10-09T07:56:38.803Z,13.58
2018-10-09T07:59:07.080Z,12.90
2018-10-09T08:01:35.323Z,11.43
2018-10-09T08:04:03.578Z,11.60
2018-10-09T08:06:31.889Z,12.58
2018-10-09T08:09:00.280Z,12.28
2018-10-09T08:11:28.589Z,10.93
2018-10-09T08:13:57.060Z,11.55
2018-10-09T08:16:25.386Z,11.08
2018-10-09T08:18:53.607Z,12.10
2018-10-09T08:21:21.841Z,11.60
2018-10-09T08:23:50.096Z,12.60
2018-10-09T08:26:18.350Z,12.37
2018-10-09T08:28:46.687Z,11.90
2018-10-09T08:31:14.925Z,13.08
2018-10-09T08:33:43.184Z,14.03
2018-10-09T08:36:11.431Z,14.13
2018-10-09T08:38:39.667Z,14.33
2018-10-09T08:41:08.014Z,13.50
2018-10-09T08:43:36.503Z,13.53
2018-10-09T08:46:04.839Z,15.32
2018-10-09T08:48:33.052Z,14.53
2018-10-09T08:51:02.198Z,16.32
2018-10-09T08:53:30.461Z,15.23
2018-10-09T08:55:58.711Z,15.10
2018-10-09T08:58:26.942Z,16.87
2018-10-09T09:00:55.175Z,15.45
2018-10-09T09:03:25.426Z,14.90
2018-10-09T09:05:53.632Z,15.30
2018-10-09T09:08:21.904Z,15.08
2018-10-09T09:10:50.201Z,15.08
2018-10-09T09:13:18.459Z,15.03
2018-10-09T09:15:46.696Z,13.60
2018-10-09T09:18:14.977Z,14.65
2018-10-09T09:20:43.402Z,13.88
2018-10-09T09:23:11.589Z,13.93
2018-10-09T09:25:39.902Z,14.00
2018-10-09T09:28:08.163Z,14.25
2018-10-09T09:30:36.438Z,14.90
2018-10-09T09:33:04.743Z,16.45
2018-10-09T09:35:32.970Z,15.40
2018-10-09T09:38:01.270Z,17.92
2018-10-09T09:40:29.498Z,16.27
2018-10-09T09:42:57.791Z,16.25
2018-10-09T09:45:26.015Z,15.30
2018-10-09T09:47:54.343Z,15.43
2018-10-09T09:50:22.623Z,17.02
2018-10-09T09:52:50.861Z,15.55
2018-10-09T09:55:19.123Z,15.95
2018-10-09T09:57:47.375Z,16.60
2018-10-09T10:00:21.103Z,16.57
2018-10-09T10:02:49.400Z,16.57
2018-10-09T10:05:17.694Z,15.55
2018-10-09T10:07:45.936Z,16.85
2018-10-09T10:10:14.222Z,17.98
2018-10-09T10:12:42.491Z,17.42
2018-10-09T10:15:10.744Z,16.67
2018-10-09T10:17:38.985Z,16.90
2018-10-09T10:20:07.787Z,17.20
2018-10-09T10:22:36.203Z,18.17
2018-10-09T10:25:04.530Z,17.67
2018-10-09T10:27:33.033Z,18.10
2018-10-09T10:30:01.319Z,18.52
2018-10-09T10:32:29.540Z,18.82
2018-10-09T10:34:57.805Z,19.98
2018-10-09T10:37:26.083Z,18.67
2018-10-09T10:39:54.493Z,18.40
2018-10-09T10:42:22.921Z,20.17
2018-10-09T10:44:51.192Z,18.95
2018-10-09T10:47:19.484Z,19.32
2018-10-09T10:49:47.743Z,19.50
2018-10-09T10:52:16.017Z,17.15
2018-10-09T10:54:44.300Z,18.95
2018-10-09T10:57:12.558Z,19.15
2018-10-09T10:59:40.834Z,18.60
2018-10-09T11:02:09.116Z,19.55
2018-10-09T11:04:37.368Z,18.85
2018-10-09T11:07:05.636Z,17.92
2018-10-09T11:09:33.903Z,19.15
2018-10-09T11:12:02.161Z,18.50
2018-10-09T11:14:30.552Z,18.55
2018-10-09T11:16:58.861Z,18.48
2018-10-09T11:19:27.151Z,17.85
2018-10-09T11:21:55.443Z,18.98
2018-10-09T11:24:23.712Z,16.45
2018-10-09T11:26:51.950Z,19.87
2018-10-09T11:29:20.248Z,18.20
2018-10-09T11:31:48.590Z,19.50
2018-10-09T11:34:16.864Z,16.97
2018-10-09T11:36:45.084Z,18.52
2018-10-09T11:39:13.324Z,19.48
2018-10-09T11:41:41.606Z,14.90
2018-10-09T11:44:09.894Z,19.35
2018-10-09T11:46:38.164Z,19.20
2018-10-09T11:49:07.175Z,16.40
2018-10-09T11:51:35.522Z,19.67
2018-10-09T11:54:03.864Z,20.52
2018-10-09T11:56:32.173Z,21.45
2018-10-09T11:59:00.633Z,19.65
2018-10-09T12:01:28.835Z,17.87
2018-10-09T12:03:57.113Z,20.20
2018-10-09T12:06:25.342Z,20.37
2018-10-09T12:08:53.664Z,19.48
2018-10-09T12:11:21.915Z,20.17
2018-10-09T12:13:50.127Z,19.87
2018-10-09T12:16:18.618Z,17.20
2018-10-09T12:18:46.878Z,19.73
2018-10-09T12:21:15.168Z,20.72
2018-10-09T12:23:43.456Z,17.42
2018-10-09T12:26:11.796Z,20.82
2018-10-09T12:28:40.182Z,19.52
2018-10-09T12:31:08.478Z,18.67
2018-10-09T12:33:36.767Z,19.30
2018-10-09T12:36:05.193Z,16.40
2018-10-09T12:38:33.439Z,19.17
2018-10-09T12:41:01.699Z,19.55
2018-10-09T12:43:29.990Z,17.98
2018-10-09T12:45:58.225Z,17.27
2018-10-09T12:48:26.546Z,20.43
2018-10-09T12:50:54.832Z,18.45
2018-10-09T12:53:23.135Z,19.73
2018-10-09T12:55:51.391Z,19.12
2018-10-09T12:58:19.702Z,19.17
2018-10-09T13:00:48.053Z,19.90
2018-10-09T13:03:16.432Z,19.15
2018-10-09T13:05:46.175Z,20.20
2018-10-09T13:08:14.466Z,17.20
2018-10-09T13:10:42.769Z,16.35
2018-10-09T13:13:11.217Z,17.48
2018-10-09T13:15:39.465Z,18.02
2018-10-09T13:18:07.740Z,16.93
2018-10-09T13:20:36.053Z,14.43
2018-10-09T13:23:04.316Z,18.10
2018-10-09T13:25:32.573Z,16.73
2018-10-09T13:28:00.831Z,16.77
2018-10-09T13:30:29.096Z,16.75
2018-10-09T13:32:57.399Z,16.82
2018-10-09T13:35:25.646Z,17.27
2018-10-09T13:37:53.999Z,15.38
2018-10-09T13:40:22.340Z,16.48
2018-10-09T13:42:50.710Z,16.73
2018-10-09T13:45:18.936Z,17.42
2018-10-09T13:47:47.300Z,16.50
2018-10-09T13:50:15.529Z,18.20
2018-10-09T13:52:43.796Z,16.00
2018-10-09T13:55:12.100Z,17.23
2018-10-09T13:57:40.388Z,17.27
2018-10-09T14:00:08.688Z,16.95
2018-10-09T14:02:36.957Z,16.23
2018-10-09T14:05:05.204Z,13.55
2018-10-09T14:07:33.465Z,13.95
2018-10-09T14:10:01.809Z,15.00
2018-10-09T14:12:30.196Z,16.32
2018-10-09T14:14:58.541Z,18.15
2018-10-09T14:17:26.879Z,17.67
2018-10-09T14:19:55.235Z,18.02
2018-10-09T14:22:23.591Z,18.10
2018-10-09T14:24:51.853Z,16.73
2018-10-09T14:27:20.132Z,18.95
2018-10-09T14:29:48.370Z,18.15
2018-10-09T14:32:16.640Z,18.30
2018-10-09T14:34:44.998Z,17.32
2018-10-09T14:37:13.224Z,18.00
2018-10-09T14:39:41.460Z,17.40
2018-10-09T14:42:09.757Z,18.65
2018-10-09T14:44:38.063Z,17.42
2018-10-09T14:47:06.368Z,18.10
2018-10-09T14:49:34.695Z,17.07
2018-10-09T14:52:03.037Z,17.77
2018-10-09T14:54:31.338Z,18.00
2018-10-09T14:56:59.614Z,18.50
2018-10-09T14:59:27.904Z,17.40
2018-10-09T15:01:56.305Z,17.65
2018-10-09T15:04:24.608Z,19.32
2018-10-09T15:06:52.921Z,16.35
2018-10-09T15:09:21.244Z,18.23
2018-10-09T15:11:49.472Z,18.20
2018-10-09T15:14:17.779Z,18.15
2018-10-09T15:16:46.159Z,17.77
2018-10-09T15:19:14.426Z,16.95
2018-10-09T15:21:42.684Z,18.02
2018-10-09T15:24:11.081Z,18.23
2018-10-09T15:26:39.468Z,18.37
2018-10-09T15:29:07.880Z,18.20
2018-10-09T15:31:36.722Z,17.15
2018-10-09T15:34:05.039Z,17.77
2018-10-09T15:36:33.311Z,17.57
2018-10-09T15:39:01.611Z,17.87
2018-10-09T15:41:29.919Z,18.42
2018-10-09T15:43:58.140Z,20.02
2018-10-09T15:46:26.420Z,16.75
2018-10-09T15:48:54.689Z,18.45
2018-10-09T15:51:22.997Z,17.25
2018-10-09T15:53:51.296Z,18.20
2018-10-09T15:56:20.636Z,16.48
2018-10-09T15:58:48.948Z,17.45
2018-10-09T16:01:17.236Z,21.02
2018-10-09T16:03:46.720Z,19.80
2018-10-09T16:06:15.020Z,19.57
2018-10-09T16:08:43.379Z,19.42
2018-10-09T16:11:11.640Z,22.77
2018-10-09T16:13:39.907Z,19.85
2018-10-09T16:16:08.220Z,19.45
2018-10-09T16:18:36.605Z,18.70
2018-10-09T16:21:04.911Z,18.77
2018-10-09T16:23:33.180Z,20.90
2018-10-09T16:26:01.483Z,17.27
2018-10-09T16:28:31.106Z,17.55
2018-10-09T16:30:59.876Z,17.45
2018-10-09T16:33:28.406Z,16.65
2018-10-09T16:35:56.683Z,18.10
2018-10-09T16:38:25.099Z,16.90
2018-10-09T16:40:53.403Z,17.42
2018-10-09T16:43:21.933Z,16.97
2018-10-09T16:45:50.239Z,17.25
2018-10-09T16:48:18.511Z,18.07
2018-10-09T16:50:46.754Z,26.00
2018-10-09T16:53:15.165Z,27.50
2018-10-09T16:55:43.361Z,24.10
2018-10-09T16:58:11.630Z,21.00
2018-10-09T17:00:39.936Z,22.10
2018-10-09T17:03:08.229Z,19.62
2018-10-09T17:05:36.479Z,19.57
2018-10-09T17:08:04.767Z,19.25
2018-10-09T17:10:33.004Z,17.50
2018-10-09T17:13:02.177Z,18.65
2018-10-09T17:15:30.495Z,17.60
2018-10-09T17:17:58.707Z,19.80
2018-10-09T17:20:27.048Z,22.37
2018-10-09T17:22:55.398Z,22.07
2018-10-09T17:25:23.891Z,22.80
2018-10-09T17:27:52.178Z,23.20
2018-10-09T17:30:20.482Z,55.63
2018-10-09T17:32:48.757Z,42.23
2018-10-09T17:35:17.042Z,26.17
2018-10-09T17:37:45.294Z,26.55
2018-10-09T17:40:13.707Z,24.82
2018-10-09T17:42:41.994Z,21.30
2018-10-09T17:45:10.224Z,21.48
2018-10-09T17:47:38.479Z,20.70
2018-10-09T17:50:07.328Z,20.50
2018-10-09T17:52:35.840Z,22.02
2018-10-09T17:55:04.456Z,24.12
2018-10-09T17:57:32.876Z,24.87
2018-10-09T18:00:01.379Z,22.35
2018-10-09T18:02:29.830Z,22.75
2018-10-09T18:04:58.117Z,22.62
2018-10-09T18:07:26.410Z,24.30
2018-10-09T18:09:54.793Z,30.00
2018-10-09T18:12:23.043Z,23.77
2018-10-09T18:14:51.600Z,22.80
2018-10-09T18:17:19.637Z,24.05
2018-10-09T18:19:47.914Z,26.68
2018-10-09T18:22:16.335Z,25.60
2018-10-09T18:24:44.567Z,26.37
2018-10-09T18:27:12.833Z,24.25
2018-10-09T18:29:41.165Z,24.07
2018-10-09T18:32:09.465Z,21.77
2018-10-09T18:34:37.776Z,21.93
2018-10-09T18:37:06.484Z,22.00
2018-10-09T18:39:34.737Z,22.20
2018-10-09T18:42:03.095Z,22.75
2018-10-09T18:44:31.326Z,26.05
2018-10-09T18:46:59.678Z,26.52
2018-10-09T18:49:27.989Z,24.60
2018-10-09T18:51:56.251Z,24.95
2018-10-09T18:54:24.471Z,24.23
2018-10-09T18:56:52.737Z,24.15
2018-10-09T18:59:21.089Z,24.77
2018-10-09T19:01:49.374Z,24.95
2018-10-09T19:04:17.731Z,27.00
2018-10-09T19:06:46.010Z,30.60
2018-10-09T19:09:14.308Z,37.20
2018-10-09T19:11:42.564Z,29.02
2018-10-09T19:14:10.822Z,27.45
2018-10-09T19:16:39.111Z,26.57
2018-10-09T19:19:07.390Z,26.33
2018-10-09T19:21:35.652Z,26.07
2018-10-09T19:24:03.873Z,26.40
2018-10-09T19:26:32.130Z,28.65
2018-10-09T19:29:00.417Z,29.40
2018-10-09T19:31:28.648Z,28.75
2018-10-09T19:33:56.923Z,29.25
2018-10-09T19:36:25.174Z,28.85
2018-10-09T19:38:53.480Z,29.57
2018-10-09T19:41:21.791Z,28.98
2018-10-09T19:43:50.183Z,28.73
2018-10-09T19:46:18.631Z,29.37
2018-10-09T19:48:46.908Z,31.00
2018-10-09T19:51:15.281Z,28.12
2018-10-09T19:53:43.398Z,30.57
2018-10-09T19:56:11.642Z,29.87
2018-10-09T19:58:39.914Z,29.98
2018-10-09T20:01:08.217Z,28.98
2018-10-09T20:03:36.491Z,29.40
2018-10-09T20:06:05.076Z,30.45
2018-10-09T20:08:33.405Z,29.82
2018-10-09T20:11:01.647Z,29.40
2018-10-09T20:13:29.887Z,32.13
2018-10-09T20:15:58.220Z,30.15
2018-10-09T20:18:26.580Z,31.57
2018-10-09T20:20:55.077Z,29.25
2018-10-09T20:23:23.394Z,30.23
2018-10-09T20:25:51.635Z,32.20
2018-10-09T20:28:19.921Z,33.23
2018-10-09T20:30:48.204Z,29.87
2018-10-09T20:33:16.517Z,30.23
2018-10-09T20:35:44.956Z,29.42
2018-10-09T20:38:13.473Z,29.48
2018-10-09T20:40:41.765Z,31.57
2018-10-09T20:43:10.028Z,31.70
2018-10-09T20:45:38.315Z,32.45
2018-10-09T20:48:06.635Z,30.80
2018-10-09T20:50:34.930Z,30.80
2018-10-09T20:53:03.250Z,30.48
2018-10-09T20:55:31.606Z,31.70
2018-10-09T20:57:59.946Z,30.55
2018-10-09T21:00:28.256Z,30.02
2018-10-09T21:02:56.547Z,29.92
2018-10-09T21:05:24.799Z,30.43
2018-10-09T21:07:53.032Z,29.77
2018-10-09T21:10:21.330Z,30.97
2018-10-09T21:12:49.588Z,30.77
2018-10-09T21:15:17.883Z,31.73
2018-10-09T21:17:46.280Z,29.35
2018-10-09T21:20:14.390Z,29.82
2018-10-09T21:22:42.642Z,30.68
2018-10-09T21:25:10.919Z,29.55
2018-10-09T21:27:39.220Z,31.05
2018-10-09T21:30:07.582Z,29.75
2018-10-09T21:32:35.866Z,29.32
2018-10-09T21:35:04.207Z,30.65
2018-10-09T21:37:32.512Z,30.27
2018-10-09T21:40:00.818Z,28.92
2018-10-09T21:42:29.142Z,30.50
2018-10-09T21:44:57.426Z,29.70
2018-10-09T21:47:25.690Z,30.17
2018-10-09T21:49:53.923Z,30.95
2018-10-09T21:52:22.194Z,29.37
2018-10-09T21:54:50.438Z,29.52
2018-10-09T21:57:18.684Z,28.98
2018-10-09T21:59:46.967Z,30.15
2018-10-09T22:02:15.262Z,29.02
2018-10-09T22:04:43.544Z,30.20
2018-10-09T22:07:14.766Z,30.20
2018-10-09T22:09:43.092Z,30.25
2018-10-09T22:12:11.445Z,32.03
2018-10-09T22:14:39.827Z,30.23
2018-10-09T22:17:08.111Z,30.70
2018-10-09T22:19:36.353Z,30.32
2018-10-09T22:22:04.624Z,30.80
2018-10-09T22:24:32.988Z,29.95
2018-10-09T22:27:01.241Z,29.92
2018-10-09T22:29:29.514Z,29.70
2018-10-09T22:31:57.826Z,30.43
2018-10-09T22:34:26.089Z,31.52
2018-10-09T22:36:54.340Z,31.05
2018-10-09T22:39:22.664Z,30.12
2018-10-09T22:41:50.934Z,30.92
2018-10-09T22:44:19.240Z,31.15
2018-10-09T22:46:47.538Z,30.20
2018-10-09T22:49:15.823Z,29.23
2018-10-09T22:51:44.107Z,28.38
2018-10-09T22:54:12.383Z,30.80
2018-10-09T22:56:40.664Z,30.35
2018-10-09T22:59:08.971Z,31.37
2018-10-09T23:01:37.222Z,30.82
2018-10-09T23:04:05.494Z,31.35
2018-10-09T23:06:33.845Z,30.52
2018-10-09T23:09:02.127Z,29.77
2018-10-09T23:11:30.370Z,31.77
2018-10-09T23:13:58.626Z,31.12
2018-10-09T23:16:26.871Z,30.15
2018-10-09T23:18:55.204Z,30.90
2018-10-09T23:21:23.522Z,30.92
2018-10-09T23:23:52.855Z,30.48
2018-10-09T23:26:21.099Z,29.40
2018-10-09T23:28:49.371Z,30.05
2018-10-09T23:31:17.686Z,29.85
2018-10-09T23:33:45.935Z,28.62
2018-10-09T23:36:14.220Z,30.95
2018-10-09T23:38:42.589Z,31.35
2018-10-09T23:41:10.860Z,30.43
2018-10-09T23:43:39.138Z,32.03
2018-10-09T23:46:07.399Z,29.80
2018-10-09T23:48:35.721Z,31.70
2018-10-09T23:51:03.954Z,30.50
2018-10-09T23:53:32.254Z,30.30
2018-10-09T23:56:00.586Z,31.00
2018-10-09T23:58:28.952Z,30.65
